sensor_id;sensor_type;location;lat;lon;timestamp;P1;durP1;ratioP1;P2;durP2;ratioP2
29984;SDS011;17387;42.690;23.328;2024-01-15T00:01:01;249.20;;;115.68;;
29984;SDS011;17387;42.690;23.328;2024-01-15T00:03:27;230.35;;;106.70;;
29984;SDS011;17387;42.690;23.328;2024-01-15T00:05:52;212.80;;;97.10;;
29984;SDS011;17387;42.690;23.328;2024-01-15T00:08:17;208.68;;;95.43;;
29984;SDS011;17387;42.690;23.328;2024-01-15T00:10:43;227.65;;;103.93;;
29984;SDS011;17387;42.690;23.328;2024-01-15T00:13:08;224.73;;;105.63;;
29984;SDS011;17387;42.690;23.328;2024-01-15T00:15:33;240.93;;;111.13;;
29984;SDS011;17387;42.690;23.328;2024-01-15T00:17:58;254.00;;;113.47;;
29984;SDS011;17387;42.690;23.328;2024-01-15T00:20:24;274.20;;;127.65;;
29984;SDS011;17387;42.690;23.328;2024-01-15T00:22:49;271.15;;;123.53;;
29984;SDS011;17387;42.690;23.328;2024-01-15T00:25:14;271.20;;;123.63;;
29984;SDS011;17387;42.690;23.328;2024-01-15T00:27:40;268.67;;;124.55;;
29984;SDS011;17387;42.690;23.328;2024-01-15T00:30:05;273.85;;;124.03;;
29984;SDS011;17387;42.690;23.328;2024-01-15T00:32:30;279.75;;;128.45;;
29984;SDS011;17387;42.690;23.328;2024-01-15T00:34:56;265.70;;;124.18;;
29984;SDS011;17387;42.690;23.328;2024-01-15T00:37:21;269.15;;;126.72;;
29984;SDS011;17387;42.690;23.328;2024-01-15T00:39:47;277.58;;;127.80;;
29984;SDS011;17387;42.690;23.328;2024-01-15T00:42:12;278.60;;;127.43;;
29984;SDS011;17387;42.690;23.328;2024-01-15T00:44:37;268.52;;;125.18;;
29984;SDS011;17387;42.690;23.328;2024-01-15T00:47:02;265.05;;;125.85;;
29984;SDS011;17387;42.690;23.328;2024-01-15T00:49:28;270.73;;;122.22;;
29984;SDS011;17387;42.690;23.328;2024-01-15T00:51:54;277.30;;;124.72;;
29984;SDS011;17387;42.690;23.328;2024-01-15T00:54:19;252.40;;;118.88;;
29984;SDS011;17387;42.690;23.328;2024-01-15T00:56:44;253.52;;;117.15;;
29984;SDS011;17387;42.690;23.328;2024-01-15T00:59:09;250.98;;;116.43;;
29984;SDS011;17387;42.690;23.328;2024-01-15T01:01:35;255.25;;;115.88;;
29984;SDS011;17387;42.690;23.328;2024-01-15T01:04:00;253.75;;;115.15;;
29984;SDS011;17387;42.690;23.328;2024-01-15T01:06:26;253.00;;;115.82;;
29984;SDS011;17387;42.690;23.328;2024-01-15T01:08:51;247.43;;;112.22;;
29984;SDS011;17387;42.690;23.328;2024-01-15T01:11:16;248.52;;;114.38;;
29984;SDS011;17387;42.690;23.328;2024-01-15T01:13:42;245.45;;;110.38;;
29984;SDS011;17387;42.690;23.328;2024-01-15T01:16:07;246.05;;;113.45;;
29984;SDS011;17387;42.690;23.328;2024-01-15T01:18:33;250.38;;;112.40;;
29984;SDS011;17387;42.690;23.328;2024-01-15T01:20:58;242.35;;;109.15;;
29984;SDS011;17387;42.690;23.328;2024-01-15T01:23:23;235.23;;;106.30;;
29984;SDS011;17387;42.690;23.328;2024-01-15T01:25:50;230.38;;;103.95;;
29984;SDS011;17387;42.690;23.328;2024-01-15T01:28:15;220.45;;;103.88;;
29984;SDS011;17387;42.690;23.328;2024-01-15T01:30:40;212.32;;;100.97;;
29984;SDS011;17387;42.690;23.328;2024-01-15T01:33:05;221.10;;;101.45;;
29984;SDS011;17387;42.690;23.328;2024-01-15T01:35:31;219.63;;;102.35;;
29984;SDS011;17387;42.690;23.328;2024-01-15T01:37:56;219.15;;;102.05;;
29984;SDS011;17387;42.690;23.328;2024-01-15T01:40:21;227.05;;;103.97;;
29984;SDS011;17387;42.690;23.328;2024-01-15T01:42:47;227.32;;;102.32;;
29984;SDS011;17387;42.690;23.328;2024-01-15T01:45:12;215.98;;;100.05;;
29984;SDS011;17387;42.690;23.328;2024-01-15T01:47:37;231.85;;;108.97;;
29984;SDS011;17387;42.690;23.328;2024-01-15T01:50:03;240.77;;;109.80;;
29984;SDS011;17387;42.690;23.328;2024-01-15T01:52:30;231.02;;;108.35;;
29984;SDS011;17387;42.690;23.328;2024-01-15T01:54:56;238.02;;;111.90;;
29984;SDS011;17387;42.690;23.328;2024-01-15T01:57:22;246.90;;;113.90;;
29984;SDS011;17387;42.690;23.328;2024-01-15T01:59:47;247.18;;;114.93;;
29984;SDS011;17387;42.690;23.328;2024-01-15T02:02:12;253.98;;;116.13;;
29984;SDS011;17387;42.690;23.328;2024-01-15T02:04:38;252.88;;;119.22;;
29984;SDS011;17387;42.690;23.328;2024-01-15T02:07:04;262.98;;;119.60;;
29984;SDS011;17387;42.690;23.328;2024-01-15T02:09:29;252.50;;;116.57;;
29984;SDS011;17387;42.690;23.328;2024-01-15T02:11:55;264.27;;;118.28;;
29984;SDS011;17387;42.690;23.328;2024-01-15T02:14:20;249.55;;;115.53;;
29984;SDS011;17387;42.690;23.328;2024-01-15T02:16:46;237.80;;;108.85;;
29984;SDS011;17387;42.690;23.328;2024-01-15T02:19:15;234.60;;;106.35;;
29984;SDS011;17387;42.690;23.328;2024-01-15T02:21:41;217.50;;;101.68;;
29984;SDS011;17387;42.690;23.328;2024-01-15T02:24:07;206.15;;;99.25;;
29984;SDS011;17387;42.690;23.328;2024-01-15T02:26:32;209.85;;;97.43;;
29984;SDS011;17387;42.690;23.328;2024-01-15T02:29:00;196.07;;;93.07;;
29984;SDS011;17387;42.690;23.328;2024-01-15T02:31:26;184.18;;;85.15;;
29984;SDS011;17387;42.690;23.328;2024-01-15T02:33:51;166.07;;;78.70;;
29984;SDS011;17387;42.690;23.328;2024-01-15T02:36:17;168.35;;;82.38;;
29984;SDS011;17387;42.690;23.328;2024-01-15T02:38:42;174.52;;;82.22;;
29984;SDS011;17387;42.690;23.328;2024-01-15T02:41:07;164.68;;;81.18;;
29984;SDS011;17387;42.690;23.328;2024-01-15T02:43:32;171.98;;;78.85;;
29984;SDS011;17387;42.690;23.328;2024-01-15T02:45:58;166.80;;;77.55;;
29984;SDS011;17387;42.690;23.328;2024-01-15T02:48:23;150.43;;;73.00;;
29984;SDS011;17387;42.690;23.328;2024-01-15T02:50:48;148.55;;;71.82;;
29984;SDS011;17387;42.690;23.328;2024-01-15T02:53:13;135.68;;;63.60;;
29984;SDS011;17387;42.690;23.328;2024-01-15T02:55:39;133.38;;;64.72;;
29984;SDS011;17387;42.690;23.328;2024-01-15T02:58:04;130.30;;;60.70;;
29984;SDS011;17387;42.690;23.328;2024-01-15T03:00:29;144.25;;;65.88;;
29984;SDS011;17387;42.690;23.328;2024-01-15T03:02:54;133.38;;;63.97;;
29984;SDS011;17387;42.690;23.328;2024-01-15T03:05:20;151.88;;;70.43;;
29984;SDS011;17387;42.690;23.328;2024-01-15T03:07:45;181.27;;;83.85;;
29984;SDS011;17387;42.690;23.328;2024-01-15T03:10:10;199.07;;;93.72;;
29984;SDS011;17387;42.690;23.328;2024-01-15T03:12:36;200.40;;;92.60;;
29984;SDS011;17387;42.690;23.328;2024-01-15T03:15:01;183.13;;;85.90;;
29984;SDS011;17387;42.690;23.328;2024-01-15T03:17:26;164.95;;;73.35;;
29984;SDS011;17387;42.690;23.328;2024-01-15T03:19:51;159.98;;;74.28;;
29984;SDS011;17387;42.690;23.328;2024-01-15T03:22:17;162.20;;;74.97;;
29984;SDS011;17387;42.690;23.328;2024-01-15T03:24:42;154.27;;;72.05;;
29984;SDS011;17387;42.690;23.328;2024-01-15T03:27:08;159.95;;;72.45;;
29984;SDS011;17387;42.690;23.328;2024-01-15T03:29:33;168.45;;;75.93;;
29984;SDS011;17387;42.690;23.328;2024-01-15T03:31:58;156.98;;;73.50;;
29984;SDS011;17387;42.690;23.328;2024-01-15T03:34:24;161.55;;;71.82;;
29984;SDS011;17387;42.690;23.328;2024-01-15T03:36:49;147.98;;;66.30;;
29984;SDS011;17387;42.690;23.328;2024-01-15T03:39:14;152.70;;;65.00;;
29984;SDS011;17387;42.690;23.328;2024-01-15T03:41:39;147.50;;;65.50;;
29984;SDS011;17387;42.690;23.328;2024-01-15T03:44:05;147.32;;;65.07;;
29984;SDS011;17387;42.690;23.328;2024-01-15T03:46:30;136.80;;;63.65;;
29984;SDS011;17387;42.690;23.328;2024-01-15T03:48:56;126.95;;;57.65;;
29984;SDS011;17387;42.690;23.328;2024-01-15T03:51:21;111.63;;;51.47;;
29984;SDS011;17387;42.690;23.328;2024-01-15T03:53:46;107.57;;;50.15;;
29984;SDS011;17387;42.690;23.328;2024-01-15T03:56:12;111.45;;;50.83;;
29984;SDS011;17387;42.690;23.328;2024-01-15T03:58:37;106.13;;;47.75;;
29984;SDS011;17387;42.690;23.328;2024-01-15T04:01:02;106.00;;;48.20;;
29984;SDS011;17387;42.690;23.328;2024-01-15T04:03:28;98.82;;;45.55;;
29984;SDS011;17387;42.690;23.328;2024-01-15T04:05:53;94.10;;;44.17;;
29984;SDS011;17387;42.690;23.328;2024-01-15T04:08:18;91.45;;;43.58;;
29984;SDS011;17387;42.690;23.328;2024-01-15T04:10:43;97.85;;;44.15;;
29984;SDS011;17387;42.690;23.328;2024-01-15T04:13:09;98.43;;;46.67;;
29984;SDS011;17387;42.690;23.328;2024-01-15T04:15:34;106.15;;;49.45;;
29984;SDS011;17387;42.690;23.328;2024-01-15T04:18:00;109.47;;;48.83;;
29984;SDS011;17387;42.690;23.328;2024-01-15T04:20:26;115.30;;;51.53;;
29984;SDS011;17387;42.690;23.328;2024-01-15T04:22:51;107.97;;;49.72;;
29984;SDS011;17387;42.690;23.328;2024-01-15T04:25:17;112.00;;;50.53;;
29984;SDS011;17387;42.690;23.328;2024-01-15T04:27:42;104.70;;;49.10;;
29984;SDS011;17387;42.690;23.328;2024-01-15T04:30:07;106.75;;;48.78;;
29984;SDS011;17387;42.690;23.328;2024-01-15T04:32:33;101.53;;;48.53;;
29984;SDS011;17387;42.690;23.328;2024-01-15T04:34:58;106.50;;;47.80;;
29984;SDS011;17387;42.690;23.328;2024-01-15T04:37:23;96.97;;;47.33;;
29984;SDS011;17387;42.690;23.328;2024-01-15T04:39:48;93.30;;;43.85;;
29984;SDS011;17387;42.690;23.328;2024-01-15T04:42:14;86.95;;;41.03;;
29984;SDS011;17387;42.690;23.328;2024-01-15T04:44:39;90.25;;;42.00;;
29984;SDS011;17387;42.690;23.328;2024-01-15T04:47:04;97.70;;;44.42;;
29984;SDS011;17387;42.690;23.328;2024-01-15T04:49:29;99.22;;;44.58;;
29984;SDS011;17387;42.690;23.328;2024-01-15T04:51:55;109.38;;;50.08;;
29984;SDS011;17387;42.690;23.328;2024-01-15T04:54:20;112.30;;;49.97;;
29984;SDS011;17387;42.690;23.328;2024-01-15T04:56:46;121.40;;;53.38;;
29984;SDS011;17387;42.690;23.328;2024-01-15T04:59:11;116.05;;;56.08;;
29984;SDS011;17387;42.690;23.328;2024-01-15T05:01:37;121.10;;;55.55;;
29984;SDS011;17387;42.690;23.328;2024-01-15T05:04:02;115.70;;;53.20;;
29984;SDS011;17387;42.690;23.328;2024-01-15T05:06:28;107.25;;;51.83;;
29984;SDS011;17387;42.690;23.328;2024-01-15T05:08:53;114.75;;;53.42;;
29984;SDS011;17387;42.690;23.328;2024-01-15T05:11:18;117.82;;;52.80;;
29984;SDS011;17387;42.690;23.328;2024-01-15T05:13:47;107.25;;;50.63;;
29984;SDS011;17387;42.690;23.328;2024-01-15T05:16:16;108.72;;;51.33;;
29984;SDS011;17387;42.690;23.328;2024-01-15T05:18:41;104.78;;;49.38;;
29984;SDS011;17387;42.690;23.328;2024-01-15T05:21:08;106.88;;;50.35;;
29984;SDS011;17387;42.690;23.328;2024-01-15T05:23:33;110.20;;;53.15;;
29984;SDS011;17387;42.690;23.328;2024-01-15T05:26:01;116.57;;;53.17;;
29984;SDS011;17387;42.690;23.328;2024-01-15T05:28:26;107.75;;;52.47;;
29984;SDS011;17387;42.690;23.328;2024-01-15T05:30:52;121.63;;;55.95;;
29984;SDS011;17387;42.690;23.328;2024-01-15T05:33:17;116.55;;;53.90;;
29984;SDS011;17387;42.690;23.328;2024-01-15T05:35:43;109.93;;;53.80;;
29984;SDS011;17387;42.690;23.328;2024-01-15T05:38:08;117.05;;;53.15;;
29984;SDS011;17387;42.690;23.328;2024-01-15T05:40:33;117.32;;;52.92;;
29984;SDS011;17387;42.690;23.328;2024-01-15T05:42:58;109.07;;;52.00;;
29984;SDS011;17387;42.690;23.328;2024-01-15T05:45:25;116.53;;;54.60;;
29984;SDS011;17387;42.690;23.328;2024-01-15T05:47:51;116.55;;;53.33;;
29984;SDS011;17387;42.690;23.328;2024-01-15T05:50:16;119.43;;;55.53;;
29984;SDS011;17387;42.690;23.328;2024-01-15T05:52:41;114.60;;;55.03;;
29984;SDS011;17387;42.690;23.328;2024-01-15T05:55:06;112.70;;;53.20;;
29984;SDS011;17387;42.690;23.328;2024-01-15T05:57:32;107.35;;;50.75;;
29984;SDS011;17387;42.690;23.328;2024-01-15T05:59:57;103.15;;;49.90;;
29984;SDS011;17387;42.690;23.328;2024-01-15T06:02:22;110.00;;;49.95;;
29984;SDS011;17387;42.690;23.328;2024-01-15T06:04:48;106.07;;;50.47;;
29984;SDS011;17387;42.690;23.328;2024-01-15T06:07:13;107.28;;;49.45;;
29984;SDS011;17387;42.690;23.328;2024-01-15T06:09:38;119.82;;;54.40;;
29984;SDS011;17387;42.690;23.328;2024-01-15T06:12:04;111.32;;;51.75;;
29984;SDS011;17387;42.690;23.328;2024-01-15T06:14:29;111.50;;;52.63;;
29984;SDS011;17387;42.690;23.328;2024-01-15T06:16:55;119.97;;;56.92;;
29984;SDS011;17387;42.690;23.328;2024-01-15T06:19:20;137.38;;;65.70;;
29984;SDS011;17387;42.690;23.328;2024-01-15T06:21:45;141.63;;;64.57;;
29984;SDS011;17387;42.690;23.328;2024-01-15T06:24:10;184.38;;;89.43;;
29984;SDS011;17387;42.690;23.328;2024-01-15T06:26:36;164.68;;;78.80;;
29984;SDS011;17387;42.690;23.328;2024-01-15T06:29:01;167.50;;;82.53;;
29984;SDS011;17387;42.690;23.328;2024-01-15T06:31:27;163.80;;;75.97;;
29984;SDS011;17387;42.690;23.328;2024-01-15T06:33:53;148.05;;;72.72;;
29984;SDS011;17387;42.690;23.328;2024-01-15T06:36:18;161.20;;;76.07;;
29984;SDS011;17387;42.690;23.328;2024-01-15T06:38:43;169.48;;;83.47;;
29984;SDS011;17387;42.690;23.328;2024-01-15T06:41:09;162.48;;;79.60;;
29984;SDS011;17387;42.690;23.328;2024-01-15T06:43:34;168.40;;;82.15;;
29984;SDS011;17387;42.690;23.328;2024-01-15T06:46:00;164.18;;;79.80;;
29984;SDS011;17387;42.690;23.328;2024-01-15T06:48:25;161.25;;;78.28;;
29984;SDS011;17387;42.690;23.328;2024-01-15T06:50:50;158.45;;;77.72;;
29984;SDS011;17387;42.690;23.328;2024-01-15T06:53:15;159.52;;;77.75;;
29984;SDS011;17387;42.690;23.328;2024-01-15T06:55:41;158.57;;;78.60;;
29984;SDS011;17387;42.690;23.328;2024-01-15T06:58:06;160.65;;;79.68;;
29984;SDS011;17387;42.690;23.328;2024-01-15T07:00:31;177.65;;;84.97;;
29984;SDS011;17387;42.690;23.328;2024-01-15T07:02:56;185.45;;;89.47;;
29984;SDS011;17387;42.690;23.328;2024-01-15T07:05:22;186.40;;;89.53;;
29984;SDS011;17387;42.690;23.328;2024-01-15T07:07:47;185.45;;;89.22;;
29984;SDS011;17387;42.690;23.328;2024-01-15T07:10:13;144.20;;;68.45;;
29984;SDS011;17387;42.690;23.328;2024-01-15T07:12:38;134.90;;;62.42;;
29984;SDS011;17387;42.690;23.328;2024-01-15T07:15:03;133.55;;;64.75;;
29984;SDS011;17387;42.690;23.328;2024-01-15T07:17:31;137.75;;;64.60;;
29984;SDS011;17387;42.690;23.328;2024-01-15T07:19:56;149.15;;;66.88;;
29984;SDS011;17387;42.690;23.328;2024-01-15T07:22:22;152.63;;;71.72;;
29984;SDS011;17387;42.690;23.328;2024-01-15T07:24:47;165.73;;;79.07;;
29984;SDS011;17387;42.690;23.328;2024-01-15T07:27:13;167.52;;;83.32;;
29984;SDS011;17387;42.690;23.328;2024-01-15T07:29:38;181.00;;;88.18;;
29984;SDS011;17387;42.690;23.328;2024-01-15T07:32:03;208.70;;;94.70;;
29984;SDS011;17387;42.690;23.328;2024-01-15T07:34:29;196.05;;;92.95;;
29984;SDS011;17387;42.690;23.328;2024-01-15T07:36:54;187.13;;;89.88;;
29984;SDS011;17387;42.690;23.328;2024-01-15T07:39:20;171.93;;;81.13;;
29984;SDS011;17387;42.690;23.328;2024-01-15T07:41:45;167.85;;;80.60;;
29984;SDS011;17387;42.690;23.328;2024-01-15T07:44:10;165.88;;;77.68;;
29984;SDS011;17387;42.690;23.328;2024-01-15T07:46:35;166.40;;;79.88;;
29984;SDS011;17387;42.690;23.328;2024-01-15T07:49:01;161.00;;;78.78;;
29984;SDS011;17387;42.690;23.328;2024-01-15T07:51:26;158.60;;;76.25;;
29984;SDS011;17387;42.690;23.328;2024-01-15T07:53:55;157.63;;;80.55;;
29984;SDS011;17387;42.690;23.328;2024-01-15T07:56:23;153.60;;;75.38;;
29984;SDS011;17387;42.690;23.328;2024-01-15T07:58:48;148.52;;;72.47;;
29984;SDS011;17387;42.690;23.328;2024-01-15T08:01:13;154.43;;;73.57;;
29984;SDS011;17387;42.690;23.328;2024-01-15T08:03:39;145.23;;;69.18;;
29984;SDS011;17387;42.690;23.328;2024-01-15T08:06:05;154.30;;;73.10;;
29984;SDS011;17387;42.690;23.328;2024-01-15T08:08:30;147.63;;;69.15;;
29984;SDS011;17387;42.690;23.328;2024-01-15T08:10:55;145.25;;;66.00;;
29984;SDS011;17387;42.690;23.328;2024-01-15T08:13:21;137.82;;;67.43;;
29984;SDS011;17387;42.690;23.328;2024-01-15T08:15:46;135.63;;;67.03;;
29984;SDS011;17387;42.690;23.328;2024-01-15T08:18:11;122.20;;;60.85;;
29984;SDS011;17387;42.690;23.328;2024-01-15T08:20:37;132.05;;;60.85;;
29984;SDS011;17387;42.690;23.328;2024-01-15T08:23:02;133.27;;;62.30;;
29984;SDS011;17387;42.690;23.328;2024-01-15T08:25:27;127.55;;;60.75;;
29984;SDS011;17387;42.690;23.328;2024-01-15T08:27:53;133.30;;;64.03;;
29984;SDS011;17387;42.690;23.328;2024-01-15T08:30:18;123.95;;;61.10;;
29984;SDS011;17387;42.690;23.328;2024-01-15T08:32:44;120.00;;;60.42;;
29984;SDS011;17387;42.690;23.328;2024-01-15T08:35:09;116.15;;;55.58;;
29984;SDS011;17387;42.690;23.328;2024-01-15T08:37:34;113.90;;;55.33;;
29984;SDS011;17387;42.690;23.328;2024-01-15T08:40:00;107.45;;;54.55;;
29984;SDS011;17387;42.690;23.328;2024-01-15T08:42:25;111.25;;;56.67;;
29984;SDS011;17387;42.690;23.328;2024-01-15T08:44:50;107.15;;;54.80;;
29984;SDS011;17387;42.690;23.328;2024-01-15T08:47:16;110.43;;;52.45;;
29984;SDS011;17387;42.690;23.328;2024-01-15T08:49:41;115.20;;;55.92;;
29984;SDS011;17387;42.690;23.328;2024-01-15T08:52:08;114.97;;;56.47;;
29984;SDS011;17387;42.690;23.328;2024-01-15T08:54:33;117.90;;;56.85;;
29984;SDS011;17387;42.690;23.328;2024-01-15T08:56:58;113.10;;;56.03;;
29984;SDS011;17387;42.690;23.328;2024-01-15T08:59:24;112.70;;;55.30;;
29984;SDS011;17387;42.690;23.328;2024-01-15T09:01:51;106.43;;;53.55;;
29984;SDS011;17387;42.690;23.328;2024-01-15T09:04:16;132.88;;;60.65;;
29984;SDS011;17387;42.690;23.328;2024-01-15T09:06:44;121.63;;;57.90;;
29984;SDS011;17387;42.690;23.328;2024-01-15T09:09:09;110.00;;;50.75;;
29984;SDS011;17387;42.690;23.328;2024-01-15T09:11:35;107.07;;;51.90;;
29984;SDS011;17387;42.690;23.328;2024-01-15T09:14:00;114.28;;;53.72;;
29984;SDS011;17387;42.690;23.328;2024-01-15T09:16:25;134.85;;;66.40;;
29984;SDS011;17387;42.690;23.328;2024-01-15T09:18:51;147.00;;;72.80;;
29984;SDS011;17387;42.690;23.328;2024-01-15T09:21:16;164.40;;;81.28;;
29984;SDS011;17387;42.690;23.328;2024-01-15T09:23:41;158.60;;;78.70;;
29984;SDS011;17387;42.690;23.328;2024-01-15T09:26:07;163.05;;;75.65;;
29984;SDS011;17387;42.690;23.328;2024-01-15T09:28:33;177.52;;;83.57;;
29984;SDS011;17387;42.690;23.328;2024-01-15T09:30:58;183.13;;;92.32;;
29984;SDS011;17387;42.690;23.328;2024-01-15T09:33:23;180.77;;;89.38;;
29984;SDS011;17387;42.690;23.328;2024-01-15T09:35:49;189.45;;;93.63;;
29984;SDS011;17387;42.690;23.328;2024-01-15T09:38:14;185.20;;;94.78;;
29984;SDS011;17387;42.690;23.328;2024-01-15T09:40:40;198.38;;;97.03;;
29984;SDS011;17387;42.690;23.328;2024-01-15T09:43:08;180.73;;;89.50;;
29984;SDS011;17387;42.690;23.328;2024-01-15T09:45:33;178.82;;;87.32;;
29984;SDS011;17387;42.690;23.328;2024-01-15T09:47:58;181.15;;;90.47;;
29984;SDS011;17387;42.690;23.328;2024-01-15T09:50:24;192.48;;;93.78;;
29984;SDS011;17387;42.690;23.328;2024-01-15T09:52:49;183.43;;;91.13;;
29984;SDS011;17387;42.690;23.328;2024-01-15T09:55:15;185.10;;;88.78;;
29984;SDS011;17387;42.690;23.328;2024-01-15T09:57:41;192.43;;;91.00;;
29984;SDS011;17387;42.690;23.328;2024-01-15T10:00:07;171.52;;;88.13;;
29984;SDS011;17387;42.690;23.328;2024-01-15T10:02:32;161.25;;;81.97;;
29984;SDS011;17387;42.690;23.328;2024-01-15T10:04:57;176.68;;;82.50;;
29984;SDS011;17387;42.690;23.328;2024-01-15T10:07:23;155.07;;;74.28;;
29984;SDS011;17387;42.690;23.328;2024-01-15T10:09:48;157.00;;;75.50;;
29984;SDS011;17387;42.690;23.328;2024-01-15T10:12:14;149.23;;;73.80;;
29984;SDS011;17387;42.690;23.328;2024-01-15T10:14:40;163.63;;;80.72;;
29984;SDS011;17387;42.690;23.328;2024-01-15T10:17:12;161.98;;;76.93;;
29984;SDS011;17387;42.690;23.328;2024-01-15T10:19:37;147.07;;;75.93;;
29984;SDS011;17387;42.690;23.328;2024-01-15T10:22:02;151.00;;;75.95;;
29984;SDS011;17387;42.690;23.328;2024-01-15T10:24:28;152.70;;;70.78;;
29984;SDS011;17387;42.690;23.328;2024-01-15T10:27:01;146.38;;;69.63;;
29984;SDS011;17387;42.690;23.328;2024-01-15T10:29:29;138.55;;;69.05;;
29984;SDS011;17387;42.690;23.328;2024-01-15T10:31:54;140.38;;;64.70;;
29984;SDS011;17387;42.690;23.328;2024-01-15T10:34:20;99.55;;;44.92;;
29984;SDS011;17387;42.690;23.328;2024-01-15T10:36:45;105.18;;;48.97;;
29984;SDS011;17387;42.690;23.328;2024-01-15T10:39:13;110.47;;;53.00;;
29984;SDS011;17387;42.690;23.328;2024-01-15T10:41:38;122.93;;;57.42;;
29984;SDS011;17387;42.690;23.328;2024-01-15T10:44:04;105.00;;;50.70;;
29984;SDS011;17387;42.690;23.328;2024-01-15T10:46:30;100.78;;;51.90;;
29984;SDS011;17387;42.690;23.328;2024-01-15T10:48:56;102.60;;;50.70;;
29984;SDS011;17387;42.690;23.328;2024-01-15T10:51:22;99.95;;;47.65;;
29984;SDS011;17387;42.690;23.328;2024-01-15T10:53:48;81.97;;;41.97;;
29984;SDS011;17387;42.690;23.328;2024-01-15T10:56:13;72.88;;;34.85;;
29984;SDS011;17387;42.690;23.328;2024-01-15T10:58:39;65.63;;;32.35;;
29984;SDS011;17387;42.690;23.328;2024-01-15T11:01:05;74.50;;;37.10;;
29984;SDS011;17387;42.690;23.328;2024-01-15T11:03:30;77.55;;;38.15;;
29984;SDS011;17387;42.690;23.328;2024-01-15T11:05:55;64.70;;;31.73;;
29984;SDS011;17387;42.690;23.328;2024-01-15T11:08:21;52.95;;;26.88;;
29984;SDS011;17387;42.690;23.328;2024-01-15T11:10:47;55.47;;;27.70;;
29984;SDS011;17387;42.690;23.328;2024-01-15T11:15:56;58.25;;;31.88;;
29984;SDS011;17387;42.690;23.328;2024-01-15T11:18:26;60.67;;;29.52;;
29984;SDS011;17387;42.690;23.328;2024-01-15T11:23:41;55.10;;;29.92;;
29984;SDS011;17387;42.690;23.328;2024-01-15T11:26:26;58.38;;;30.15;;
29984;SDS011;17387;42.690;23.328;2024-01-15T11:28:51;56.17;;;30.23;;
29984;SDS011;17387;42.690;23.328;2024-01-15T11:31:17;55.10;;;26.95;;
29984;SDS011;17387;42.690;23.328;2024-01-15T11:33:49;49.47;;;26.10;;
29984;SDS011;17387;42.690;23.328;2024-01-15T11:36:15;51.08;;;27.35;;
29984;SDS011;17387;42.690;23.328;2024-01-15T11:38:40;58.67;;;30.25;;
29984;SDS011;17387;42.690;23.328;2024-01-15T11:41:14;61.00;;;31.27;;
29984;SDS011;17387;42.690;23.328;2024-01-15T11:43:41;58.97;;;28.65;;
29984;SDS011;17387;42.690;23.328;2024-01-15T11:46:08;54.90;;;29.33;;
29984;SDS011;17387;42.690;23.328;2024-01-15T11:48:41;50.08;;;27.63;;
29984;SDS011;17387;42.690;23.328;2024-01-15T11:51:07;53.10;;;28.80;;
29984;SDS011;17387;42.690;23.328;2024-01-15T11:53:36;52.28;;;27.05;;
29984;SDS011;17387;42.690;23.328;2024-01-15T11:56:02;53.38;;;28.42;;
29984;SDS011;17387;42.690;23.328;2024-01-15T11:58:28;58.22;;;29.38;;
29984;SDS011;17387;42.690;23.328;2024-01-15T12:00:53;51.38;;;28.70;;
29984;SDS011;17387;42.690;23.328;2024-01-15T12:03:23;54.75;;;27.70;;
29984;SDS011;17387;42.690;23.328;2024-01-15T12:05:48;49.45;;;27.17;;
29984;SDS011;17387;42.690;23.328;2024-01-15T12:08:20;50.30;;;26.33;;
29984;SDS011;17387;42.690;23.328;2024-01-15T12:10:45;53.20;;;27.67;;
29984;SDS011;17387;42.690;23.328;2024-01-15T12:13:11;52.10;;;26.25;;
29984;SDS011;17387;42.690;23.328;2024-01-15T12:15:38;53.15;;;27.10;;
29984;SDS011;17387;42.690;23.328;2024-01-15T12:18:06;61.63;;;27.73;;
29984;SDS011;17387;42.690;23.328;2024-01-15T12:20:32;52.08;;;27.30;;
29984;SDS011;17387;42.690;23.328;2024-01-15T12:22:58;54.83;;;28.70;;
29984;SDS011;17387;42.690;23.328;2024-01-15T12:25:24;55.92;;;27.58;;
29984;SDS011;17387;42.690;23.328;2024-01-15T12:27:50;56.00;;;29.05;;
29984;SDS011;17387;42.690;23.328;2024-01-15T12:30:16;62.58;;;27.80;;
29984;SDS011;17387;42.690;23.328;2024-01-15T12:32:41;61.05;;;30.35;;
29984;SDS011;17387;42.690;23.328;2024-01-15T12:35:07;59.13;;;30.83;;
29984;SDS011;17387;42.690;23.328;2024-01-15T12:37:34;61.75;;;31.63;;
29984;SDS011;17387;42.690;23.328;2024-01-15T12:40:00;61.45;;;32.60;;
29984;SDS011;17387;42.690;23.328;2024-01-15T12:42:25;62.35;;;31.38;;
29984;SDS011;17387;42.690;23.328;2024-01-15T12:44:50;64.72;;;31.52;;
29984;SDS011;17387;42.690;23.328;2024-01-15T12:47:16;61.13;;;32.35;;
29984;SDS011;17387;42.690;23.328;2024-01-15T12:49:46;63.70;;;33.47;;
29984;SDS011;17387;42.690;23.328;2024-01-15T12:52:11;62.55;;;31.40;;
29984;SDS011;17387;42.690;23.328;2024-01-15T12:54:37;65.53;;;31.70;;
29984;SDS011;17387;42.690;23.328;2024-01-15T12:57:02;61.17;;;31.27;;
29984;SDS011;17387;42.690;23.328;2024-01-15T12:59:28;66.57;;;31.50;;
29984;SDS011;17387;42.690;23.328;2024-01-15T13:01:54;74.10;;;34.10;;
29984;SDS011;17387;42.690;23.328;2024-01-15T13:04:23;72.90;;;35.58;;
29984;SDS011;17387;42.690;23.328;2024-01-15T13:06:49;71.97;;;34.63;;
29984;SDS011;17387;42.690;23.328;2024-01-15T13:09:14;60.67;;;31.25;;
29984;SDS011;17387;42.690;23.328;2024-01-15T13:11:40;64.45;;;30.17;;
29984;SDS011;17387;42.690;23.328;2024-01-15T13:14:05;61.20;;;30.80;;
29984;SDS011;17387;42.690;23.328;2024-01-15T13:16:30;55.30;;;30.40;;
29984;SDS011;17387;42.690;23.328;2024-01-15T13:18:56;65.03;;;30.13;;
29984;SDS011;17387;42.690;23.328;2024-01-15T13:21:21;65.32;;;29.65;;
29984;SDS011;17387;42.690;23.328;2024-01-15T13:23:47;58.05;;;30.40;;
29984;SDS011;17387;42.690;23.328;2024-01-15T13:26:12;59.25;;;29.13;;
29984;SDS011;17387;42.690;23.328;2024-01-15T13:28:37;60.40;;;30.85;;
29984;SDS011;17387;42.690;23.328;2024-01-15T13:31:03;62.88;;;30.52;;
29984;SDS011;17387;42.690;23.328;2024-01-15T13:33:29;60.35;;;31.00;;
29984;SDS011;17387;42.690;23.328;2024-01-15T13:35:55;63.50;;;29.20;;
29984;SDS011;17387;42.690;23.328;2024-01-15T13:38:20;65.32;;;31.70;;
29984;SDS011;17387;42.690;23.328;2024-01-15T13:40:45;71.97;;;36.08;;
29984;SDS011;17387;42.690;23.328;2024-01-15T13:43:11;72.13;;;34.10;;
29984;SDS011;17387;42.690;23.328;2024-01-15T13:45:36;45.30;;;24.15;;
29984;SDS011;17387;42.690;23.328;2024-01-15T13:48:02;49.13;;;25.02;;
29984;SDS011;17387;42.690;23.328;2024-01-15T13:50:30;55.58;;;25.10;;
29984;SDS011;17387;42.690;23.328;2024-01-15T13:52:55;48.30;;;25.67;;
29984;SDS011;17387;42.690;23.328;2024-01-15T13:55:21;49.17;;;25.10;;